sensor_id;sensor_type;location;lat;lon;timestamp;P1;durP1;ratioP1;P2;durP2;ratioP2
57718;SDS011;43561;50.090;18.522;2023-05-28T00:05:41;13.55;;;3.85;;
57718;SDS011;43561;50.090;18.522;2023-05-28T00:15:43;5.10;;;3.47;;
57718;SDS011;43561;50.090;18.522;2023-05-28T00:25:45;11.38;;;4.93;;
57718;SDS011;43561;50.090;18.522;2023-05-28T00:35:47;6.43;;;3.40;;
57718;SDS011;43561;50.090;18.522;2023-05-28T00:45:49;10.00;;;4.68;;
57718;SDS011;43561;50.090;18.522;2023-05-28T00:55:52;12.25;;;5.35;;
57718;SDS011;43561;50.090;18.522;2023-05-28T01:05:55;11.25;;;4.18;;
57718;SDS011;43561;50.090;18.522;2023-05-28T01:15:57;11.88;;;5.25;;
57718;SDS011;43561;50.090;18.522;2023-05-28T01:26:00;6.88;;;3.25;;
57718;SDS011;43561;50.090;18.522;2023-05-28T01:36:03;7.28;;;3.40;;
57718;SDS011;43561;50.090;18.522;2023-05-28T01:46:08;4.60;;;3.05;;
57718;SDS011;43561;50.090;18.522;2023-05-28T01:56:11;8.35;;;3.33;;
57718;SDS011;43561;50.090;18.522;2023-05-28T02:06:13;5.78;;;3.17;;
57718;SDS011;43561;50.090;18.522;2023-05-28T02:16:15;3.25;;;2.92;;
57718;SDS011;43561;50.090;18.522;2023-05-28T02:26:17;10.10;;;3.92;;
57718;SDS011;43561;50.090;18.522;2023-05-28T02:36:19;4.03;;;3.60;;
57718;SDS011;43561;50.090;18.522;2023-05-28T02:46:21;9.80;;;3.30;;
57718;SDS011;43561;50.090;18.522;2023-05-28T02:56:27;10.60;;;3.60;;
57718;SDS011;43561;50.090;18.522;2023-05-28T03:06:29;4.10;;;2.72;;
57718;SDS011;43561;50.090;18.522;2023-05-28T03:16:31;6.55;;;2.67;;
57718;SDS011;43561;50.090;18.522;2023-05-28T03:26:33;6.40;;;2.33;;
57718;SDS011;43561;50.090;18.522;2023-05-28T03:36:35;10.23;;;3.80;;
57718;SDS011;43561;50.090;18.522;2023-05-28T03:46:38;6.50;;;3.33;;
57718;SDS011;43561;50.090;18.522;2023-05-28T03:56:41;4.18;;;2.47;;
57718;SDS011;43561;50.090;18.522;2023-05-28T04:06:44;9.30;;;4.72;;
57718;SDS011;43561;50.090;18.522;2023-05-28T04:16:46;6.32;;;4.45;;
57718;SDS011;43561;50.090;18.522;2023-05-28T04:26:50;5.45;;;4.13;;
57718;SDS011;43561;50.090;18.522;2023-05-28T04:36:52;7.78;;;3.70;;
57718;SDS011;43561;50.090;18.522;2023-05-28T04:46:54;7.53;;;3.15;;
57718;SDS011;43561;50.090;18.522;2023-05-28T04:56:57;6.13;;;3.30;;
57718;SDS011;43561;50.090;18.522;2023-05-28T05:07:00;8.88;;;3.00;;
57718;SDS011;43561;50.090;18.522;2023-05-28T05:17:02;8.65;;;2.47;;
57718;SDS011;43561;50.090;18.522;2023-05-28T05:27:04;5.45;;;4.85;;
57718;SDS011;43561;50.090;18.522;2023-05-28T05:37:06;5.90;;;3.00;;
57718;SDS011;43561;50.090;18.522;2023-05-28T05:47:14;5.90;;;2.88;;
57718;SDS011;43561;50.090;18.522;2023-05-28T05:57:16;5.60;;;2.15;;
57718;SDS011;43561;50.090;18.522;2023-05-28T06:07:18;7.07;;;3.05;;
57718;SDS011;43561;50.090;18.522;2023-05-28T06:17:43;6.80;;;3.50;;
57718;SDS011;43561;50.090;18.522;2023-05-28T06:27:45;6.72;;;2.80;;
57718;SDS011;43561;50.090;18.522;2023-05-28T06:37:47;9.43;;;2.97;;
57718;SDS011;43561;50.090;18.522;2023-05-28T06:47:49;4.90;;;3.33;;
57718;SDS011;43561;50.090;18.522;2023-05-28T06:57:52;4.45;;;2.00;;
57718;SDS011;43561;50.090;18.522;2023-05-28T07:08:08;3.40;;;2.17;;
57718;SDS011;43561;50.090;18.522;2023-05-28T07:18:10;9.52;;;4.28;;
57718;SDS011;43561;50.090;18.522;2023-05-28T07:28:13;5.10;;;2.10;;
57718;SDS011;43561;50.090;18.522;2023-05-28T07:38:15;3.53;;;1.73;;
57718;SDS011;43561;50.090;18.522;2023-05-28T07:48:21;4.00;;;1.85;;
57718;SDS011;43561;50.090;18.522;2023-05-28T07:58:29;3.08;;;1.70;;
57718;SDS011;43561;50.090;18.522;2023-05-28T08:08:32;1.95;;;1.45;;
57718;SDS011;43561;50.090;18.522;2023-05-28T08:18:34;3.45;;;2.28;;
57718;SDS011;43561;50.090;18.522;2023-05-28T08:28:36;5.35;;;1.52;;
57718;SDS011;43561;50.090;18.522;2023-05-28T08:38:40;7.13;;;2.65;;
57718;SDS011;43561;50.090;18.522;2023-05-28T08:48:42;3.10;;;1.52;;
57718;SDS011;43561;50.090;18.522;2023-05-28T08:58:45;8.63;;;1.83;;
57718;SDS011;43561;50.090;18.522;2023-05-28T09:08:47;3.50;;;1.50;;
57718;SDS011;43561;50.090;18.522;2023-05-28T09:19:05;4.22;;;2.00;;
57718;SDS011;43561;50.090;18.522;2023-05-28T09:29:11;4.43;;;1.90;;
57718;SDS011;43561;50.090;18.522;2023-05-28T09:39:13;11.93;;;3.25;;
57718;SDS011;43561;50.090;18.522;2023-05-28T09:49:15;6.13;;;1.88;;
57718;SDS011;43561;50.090;18.522;2023-05-28T09:59:17;6.10;;;1.90;;
57718;SDS011;43561;50.090;18.522;2023-05-28T10:09:19;4.68;;;1.80;;
57718;SDS011;43561;50.090;18.522;2023-05-28T10:19:23;2.75;;;1.63;;
57718;SDS011;43561;50.090;18.522;2023-05-28T10:29:25;2.47;;;1.30;;
57718;SDS011;43561;50.090;18.522;2023-05-28T10:39:36;2.13;;;1.60;;
57718;SDS011;43561;50.090;18.522;2023-05-28T10:50:00;6.18;;;2.55;;
57718;SDS011;43561;50.090;18.522;2023-05-28T11:00:24;1.63;;;1.23;;
57718;SDS011;43561;50.090;18.522;2023-05-28T11:10:27;4.65;;;1.88;;
57718;SDS011;43561;50.090;18.522;2023-05-28T11:20:32;3.40;;;1.90;;
57718;SDS011;43561;50.090;18.522;2023-05-28T11:30:34;10.48;;;4.20;;
57718;SDS011;43561;50.090;18.522;2023-05-28T11:40:36;3.42;;;2.67;;
57718;SDS011;43561;50.090;18.522;2023-05-28T11:50:38;3.65;;;2.55;;
57718;SDS011;43561;50.090;18.522;2023-05-28T12:00:42;8.90;;;2.50;;
57718;SDS011;43561;50.090;18.522;2023-05-28T12:10:44;5.82;;;2.78;;
57718;SDS011;43561;50.090;18.522;2023-05-28T12:20:46;8.98;;;3.13;;
57718;SDS011;43561;50.090;18.522;2023-05-28T12:30:50;2.83;;;2.33;;
57718;SDS011;43561;50.090;18.522;2023-05-28T12:40:54;9.25;;;2.03;;
57718;SDS011;43561;50.090;18.522;2023-05-28T12:50:56;3.97;;;2.70;;
57718;SDS011;43561;50.090;18.522;2023-05-28T13:00:59;6.55;;;2.35;;
57718;SDS011;43561;50.090;18.522;2023-05-28T13:11:01;3.17;;;2.53;;
57718;SDS011;43561;50.090;18.522;2023-05-28T13:21:03;4.60;;;1.77;;
57718;SDS011;43561;50.090;18.522;2023-05-28T13:31:05;3.85;;;2.20;;
57718;SDS011;43561;50.090;18.522;2023-05-28T13:41:07;3.72;;;2.22;;
57718;SDS011;43561;50.090;18.522;2023-05-28T13:51:10;3.60;;;2.35;;
57718;SDS011;43561;50.090;18.522;2023-05-28T14:01:12;4.50;;;2.70;;
57718;SDS011;43561;50.090;18.522;2023-05-28T14:11:14;3.72;;;2.22;;
57718;SDS011;43561;50.090;18.522;2023-05-28T14:21:16;3.90;;;1.83;;
57718;SDS011;43561;50.090;18.522;2023-05-28T14:31:18;4.75;;;2.95;;
57718;SDS011;43561;50.090;18.522;2023-05-28T14:41:20;2.92;;;1.90;;
57718;SDS011;43561;50.090;18.522;2023-05-28T14:51:22;5.05;;;2.30;;
57718;SDS011;43561;50.090;18.522;2023-05-28T15:01:24;3.13;;;1.83;;
57718;SDS011;43561;50.090;18.522;2023-05-28T15:11:26;9.40;;;3.05;;
57718;SDS011;43561;50.090;18.522;2023-05-28T15:21:28;10.70;;;2.55;;
57718;SDS011;43561;50.090;18.522;2023-05-28T15:31:30;13.95;;;2.97;;
57718;SDS011;43561;50.090;18.522;2023-05-28T15:41:35;14.63;;;3.00;;
57718;SDS011;43561;50.090;18.522;2023-05-28T15:51:38;4.53;;;2.78;;
57718;SDS011;43561;50.090;18.522;2023-05-28T16:01:40;7.80;;;2.15;;
57718;SDS011;43561;50.090;18.522;2023-05-28T16:11:46;36.20;;;6.88;;
57718;SDS011;43561;50.090;18.522;2023-05-28T16:21:51;4.82;;;4.10;;
57718;SDS011;43561;50.090;18.522;2023-05-28T16:31:53;7.65;;;3.42;;
57718;SDS011;43561;50.090;18.522;2023-05-28T16:41:55;3.80;;;2.25;;
57718;SDS011;43561;50.090;18.522;2023-05-28T16:51:57;5.68;;;3.00;;
57718;SDS011;43561;50.090;18.522;2023-05-28T17:01:59;9.70;;;3.08;;
57718;SDS011;43561;50.090;18.522;2023-05-28T17:12:01;8.02;;;4.25;;
57718;SDS011;43561;50.090;18.522;2023-05-28T17:22:03;9.93;;;3.80;;
57718;SDS011;43561;50.090;18.522;2023-05-28T17:32:05;5.28;;;3.13;;
57718;SDS011;43561;50.090;18.522;2023-05-28T17:42:07;6.07;;;2.92;;
57718;SDS011;43561;50.090;18.522;2023-05-28T17:52:09;14.60;;;6.50;;
57718;SDS011;43561;50.090;18.522;2023-05-28T18:02:11;7.88;;;3.35;;
57718;SDS011;43561;50.090;18.522;2023-05-28T18:12:13;4.43;;;2.58;;
57718;SDS011;43561;50.090;18.522;2023-05-28T18:22:15;12.55;;;3.75;;
57718;SDS011;43561;50.090;18.522;2023-05-28T18:32:17;4.25;;;2.15;;
57718;SDS011;43561;50.090;18.522;2023-05-28T18:42:19;4.30;;;3.25;;
57718;SDS011;43561;50.090;18.522;2023-05-28T18:52:21;14.10;;;4.78;;
57718;SDS011;43561;50.090;18.522;2023-05-28T19:02:23;13.48;;;5.00;;
57718;SDS011;43561;50.090;18.522;2023-05-28T19:12:25;13.52;;;6.72;;
57718;SDS011;43561;50.090;18.522;2023-05-28T19:22:28;10.52;;;5.20;;
57718;SDS011;43561;50.090;18.522;2023-05-28T19:32:30;9.73;;;5.22;;
57718;SDS011;43561;50.090;18.522;2023-05-28T19:42:32;17.60;;;7.35;;
57718;SDS011;43561;50.090;18.522;2023-05-28T19:52:35;10.18;;;4.88;;
57718;SDS011;43561;50.090;18.522;2023-05-28T20:02:37;9.88;;;4.97;;
57718;SDS011;43561;50.090;18.522;2023-05-28T20:12:40;7.63;;;4.55;;
57718;SDS011;43561;50.090;18.522;2023-05-28T20:22:42;5.82;;;4.80;;
57718;SDS011;43561;50.090;18.522;2023-05-28T20:32:44;11.63;;;4.88;;
57718;SDS011;43561;50.090;18.522;2023-05-28T20:42:46;12.35;;;6.07;;
57718;SDS011;43561;50.090;18.522;2023-05-28T20:52:47;7.03;;;4.20;;
57718;SDS011;43561;50.090;18.522;2023-05-28T21:02:50;9.85;;;4.90;;
57718;SDS011;43561;50.090;18.522;2023-05-28T21:12:56;5.53;;;3.72;;
57718;SDS011;43561;50.090;18.522;2023-05-28T21:22:57;6.68;;;4.78;;
57718;SDS011;43561;50.090;18.522;2023-05-28T21:32:59;12.98;;;5.13;;
57718;SDS011;43561;50.090;18.522;2023-05-28T21:43:01;11.98;;;4.95;;
57718;SDS011;43561;50.090;18.522;2023-05-28T21:53:04;10.63;;;4.30;;
57718;SDS011;43561;50.090;18.522;2023-05-28T22:03:06;8.73;;;3.38;;
57718;SDS011;43561;50.090;18.522;2023-05-28T22:13:09;11.88;;;4.72;;
57718;SDS011;43561;50.090;18.522;2023-05-28T22:23:11;10.98;;;4.68;;
57718;SDS011;43561;50.090;18.522;2023-05-28T22:33:13;13.32;;;5.70;;
57718;SDS011;43561;50.090;18.522;2023-05-28T22:43:16;11.85;;;5.25;;
57718;SDS011;43561;50.090;18.522;2023-05-28T22:53:18;22.17;;;7.78;;
57718;SDS011;43561;50.090;18.522;2023-05-28T23:03:20;22.17;;;7.63;;
57718;SDS011;43561;50.090;18.522;2023-05-28T23:13:22;23.38;;;8.93;;
57718;SDS011;43561;50.090;18.522;2023-05-28T23:23:24;12.18;;;6.57;;
57718;SDS011;43561;50.090;18.522;2023-05-28T23:33:26;6.97;;;5.47;;
57718;SDS011;43561;50.090;18.522;2023-05-28T23:43:28;10.70;;;5.18;;
57718;SDS011;43561;50.090;18.522;2023-05-28T23:53:30;9.13;;;4.97;;
